Time;durP1;ratioP1;P1;durP2;ratioP2;P2;SDS_P1;SDS_P2;PMS_P1;PMS_P2;Temp;Humidity;BMP_temperature;BMP_pressure;BME280_temperature;BME280_humidity;BME280_pressure;Samples;Min_cycle;Max_cycle;Signal;HPM_P1;HPM_P2
2022/10/15 00:00:12;;;;;;;2.95;2.65;;;;;;;21.55;60.81;98767.91;2062393;28;20057;-46
2022/10/15 00:01:14;;;;;;;4.50;3.20;;;;;;;21.55;60.62;98765.22;2062442;28;20073;-51
2022/10/15 00:02:16;;;;;;;2.83;2.35;;;;;;;21.56;60.75;98761.47;2062795;28;20469;-46
2022/10/15 00:03:17;;;;;;;8.20;3.03;;;;;;;21.55;60.70;98765.22;2061476;28;20057;-50
2022/10/15 00:04:18;;;;;;;3.90;2.60;;;;;;;21.53;60.89;98764.59;2059065;28;20137;-50
2022/10/15 00:05:20;;;;;;;4.55;3.08;;;;;;;21.54;60.94;98766.25;2059959;28;20057;-52
2022/10/15 00:06:22;;;;;;;3.00;2.67;;;;;;;21.53;60.95;98764.59;2060659;28;20509;-48
2022/10/15 00:07:23;;;;;;;5.15;2.80;;;;;;;21.52;60.75;98768.34;2062345;28;20058;-48
2022/10/15 00:08:24;;;;;;;6.35;2.90;;;;;;;21.54;60.93;98770.84;2061396;28;20464;-49
2022/10/15 00:09:25;;;;;;;6.13;3.08;;;;;;;21.54;60.72;98765.44;2062229;28;20566;-49
2022/10/15 00:10:27;;;;;;;;;;;;;;;21.42;61.18;98770.69;2062664;28;20050;-49
2022/10/15 00:11:27;;;;;;;;;;;;;;;21.34;61.42;98768.22;2060242;28;19929;-51
2022/10/15 00:12:29;;;;;;;5.97;2.83;;;;;;;21.39;61.44;98769.25;2059179;28;20025;-47
2022/10/15 00:13:31;;;;;;;4.32;3.05;;;;;;;21.45;61.16;98762.16;2061885;28;20077;-48
2022/10/15 00:14:34;;;;;;;4.00;3.00;;;;;;;21.49;60.96;98759.88;2061468;28;20585;-48
2022/10/15 00:15:36;;;;;;;4.80;2.65;;;;;;;21.50;61.09;98761.50;2061836;28;20425;-47
2022/10/15 00:16:38;;;;;;;3.97;2.80;;;;;;;21.49;60.84;98760.69;2061485;28;20057;-50
2022/10/15 00:17:39;;;;;;;5.25;2.92;;;;;;;21.52;61.10;98762.94;2063049;28;20618;-49
2022/10/15 00:18:42;;;;;;;5.50;3.00;;;;;;;21.53;61.01;98763.78;2062322;28;20049;-53
2022/10/15 00:19:42;;;;;;;4.70;3.03;;;;;;;21.52;60.81;98762.94;2059444;28;20505;-52
2022/10/15 00:20:44;;;;;;;3.10;2.78;;;;;;;21.51;60.93;98761.31;2064117;28;20082;-49
2022/10/15 00:21:45;;;;;;;3.97;3.15;;;;;;;21.52;60.75;98762.13;2062764;28;20054;-47
2022/10/15 00:22:46;;;;;;;;;;;;;;;21.41;61.16;98763.66;2064637;28;20128;-49
2022/10/15 00:23:48;;;;;;;3.85;3.20;;;;;;;21.44;61.39;98759.69;2063605;28;19933;-49
2022/10/15 00:24:50;;;;;;;9.77;3.20;;;;;;;21.48;60.95;98767.16;2062820;28;20081;-49
2022/10/15 00:26:00;;;;;;;3.45;2.80;;;;;;;21.46;61.02;98758.44;2063740;28;20540;-51
2022/10/15 00:27:01;;;;;;;6.88;2.92;;;;;;;21.45;60.95;98751.38;2063325;28;20581;-50
2022/10/15 00:28:02;;;;;;;4.78;2.97;;;;;;;21.48;61.06;98755.50;2063841;28;20053;-47
2022/10/15 00:29:04;;;;;;;;;;;;;;;21.39;61.39;98757.66;2062880;28;20068;-50
2022/10/15 00:30:07;;;;;;;6.63;3.15;;;;;;;21.44;61.34;98757.00;2063300;28;19926;-50
2022/10/15 00:31:12;;;;;;;3.65;2.30;;;;;;;21.46;61.06;98761.13;2064390;28;20093;-47
2022/10/15 00:32:13;;;;;;;3.85;2.42;;;;;;;21.47;61.27;98754.69;2063136;28;20047;-48
2022/10/15 00:33:15;;;;;;;2.88;2.58;;;;;;;21.47;60.92;98760.09;2055756;28;20144;-52
2022/10/15 00:34:15;;;;;;;4.10;2.80;;;;;;;21.49;61.15;98755.31;2061022;28;20050;-49
2022/10/15 00:35:17;;;;;;;;;;;;;;;21.37;61.30;98757.88;2061906;28;20504;-47
2022/10/15 00:36:20;;;;;;;3.83;2.78;;;;;;;21.44;61.37;98754.31;2063929;28;19925;-47
2022/10/15 00:37:22;;;;;;;5.07;3.00;;;;;;;21.46;61.14;98758.44;2063220;28;20505;-47
2022/10/15 00:38:23;;;;;;;4.05;2.65;;;;;;;21.46;61.34;98750.34;2064053;28;20088;-49
2022/10/15 00:39:25;;;;;;;5.30;2.13;;;;;;;21.47;61.21;98751.97;2060668;28;20046;-48
2022/10/15 00:40:26;;;;;;;3.58;2.88;;;;;;;21.50;61.14;98756.94;2062337;28;20062;-50
2022/10/15 00:41:29;;;;;;;3.30;2.53;;;;;;;21.49;61.07;98752.59;2063348;28;20692;-49
2022/10/15 00:42:30;;;;;;;6.15;2.47;;;;;;;21.49;60.94;98749.09;2063832;28;20055;-47
2022/10/15 00:43:40;;;;;;;3.40;2.35;;;;;;;21.49;60.88;98763.41;2062762;28;20156;-48
2022/10/15 00:44:52;;;;;;;2.88;2.13;;;;;;;21.47;61.12;98754.69;2063079;28;20416;-47
2022/10/15 00:45:55;;;;;;;5.20;2.85;;;;;;;21.47;61.24;98757.38;2063742;28;20409;-50
2022/10/15 00:47:01;;;;;;;3.70;2.58;;;;;;;21.49;61.17;98758.00;2062817;28;20627;-48
2022/10/15 00:48:03;;;;;;;3.95;2.95;;;;;;;21.49;61.10;98757.19;2062988;28;20050;-47
2022/10/15 00:49:14;;;;;;;2.30;2.10;;;;;;;21.49;60.95;98763.41;2062602;28;20661;-50
2022/10/15 00:50:20;;;;;;;4.50;2.80;;;;;;;21.49;61.05;98759.88;2063381;28;20081;-47
2022/10/15 00:51:23;;;;;;;3.13;2.53;;;;;;;21.48;61.25;98759.06;2062588;28;20058;-48
2022/10/15 00:52:30;;;;;;;3.15;2.65;;;;;;;21.49;60.95;98755.31;2063335;28;20561;-47
2022/10/15 00:53:31;;;;;;;4.72;2.70;;;;;;;21.48;61.07;98756.34;2063620;28;20605;-49
2022/10/15 00:54:36;;;;;;;3.47;2.45;;;;;;;21.49;61.21;98758.00;2062796;28;20081;-49
2022/10/15 00:55:39;;;;;;;4.47;2.55;;;;;;;21.49;61.06;98758.00;2063634;28;20058;-50
2022/10/15 00:56:43;;;;;;;3.72;2.88;;;;;;;21.48;61.01;98756.34;2062896;28;20057;-49
2022/10/15 00:57:49;;;;;;;3.85;2.85;;;;;;;21.48;60.85;98756.34;2063332;28;20717;-48
2022/10/15 00:58:53;;;;;;;3.97;2.75;;;;;;;21.48;61.05;98759.06;2061360;28;20104;-49
2022/10/15 00:59:58;;;;;;;4.15;2.85;;;;;;;21.48;60.93;98748.25;2061770;28;20042;-50
2022/10/15 01:01:00;;;;;;;3.75;2.50;;;;;;;21.48;60.88;98752.81;2063602;28;20054;-51
2022/10/15 01:02:03;;;;;;;3.70;3.22;;;;;;;21.49;61.27;98751.78;2063892;28;20078;-47
2022/10/15 01:03:03;;;;;;;2.83;2.60;;;;;;;21.48;61.07;98745.56;2063644;28;20123;-50
2022/10/15 01:04:07;;;;;;;3.05;2.45;;;;;;;21.49;61.27;98746.38;2059141;28;20062;-49
2022/10/15 01:05:08;;;;;;;3.45;2.85;;;;;;;21.49;61.01;98749.09;2063262;28;20554;-50
2022/10/15 01:06:10;;;;;;;4.93;2.67;;;;;;;21.48;60.93;98752.81;2061207;28;20054;-47
2022/10/15 01:07:11;;;;;;;5.72;2.65;;;;;;;21.47;60.97;98746.59;2060175;28;21916;-48
2022/10/15 01:08:13;;;;;;;3.13;2.88;;;;;;;21.48;61.02;98753.66;2062820;28;20648;-50
2022/10/15 01:09:14;;;;;;;2.47;2.08;;;;;;;21.49;61.04;98758.00;2061272;28;20111;-50
2022/10/15 01:10:17;;;;;;;;;;;;;;;21.38;61.43;98750.59;2062865;28;20464;-49
2022/10/15 01:11:30;;;;;;;3.25;2.45;;;;;;;21.39;61.18;98753.06;2059887;28;19932;-47
2022/10/15 01:12:51;;;;;;;5.22;2.42;;;;;;;21.40;61.19;98751.22;2061073;28;20055;-47
2022/10/15 01:14:01;;;;;;;3.67;2.70;;;;;;;21.39;61.29;98752.25;2062150;28;20050;-49
2022/10/15 01:15:11;;;;;;;2.83;2.55;;;;;;;21.43;61.23;98748.09;2061035;28;20050;-50
2022/10/15 01:16:18;;;;;;;4.45;2.38;;;;;;;21.43;61.10;98745.38;2054522;28;20110;-49
2022/10/15 01:17:24;;;;;;;4.93;2.60;;;;;;;21.45;61.32;98748.66;2061896;28;20100;-47
2022/10/15 01:18:31;;;;;;;4.20;2.80;;;;;;;21.45;61.03;98739.75;2063375;28;20432;-48
2022/10/15 01:19:49;;;;;;;3.72;2.28;;;;;;;21.44;61.24;98744.34;2060837;28;20976;-48
2022/10/15 01:21:01;;;;;;;4.20;3.03;;;;;;;21.42;61.27;98744.56;2063233;28;20622;-47
2022/10/15 01:22:06;;;;;;;4.43;2.45;;;;;;;21.44;61.09;98732.72;2060020;28;20635;-47
2022/10/15 01:23:58;;;;;;;3.25;2.70;;;;;;;21.41;61.03;98744.78;2062303;28;20516;-49
2022/10/15 01:25:09;;;;;;;3.50;2.47;;;;;;;21.42;61.32;98743.72;2036334;29;20059;-48
2022/10/15 01:26:45;;;;;;;3.28;2.67;;;;;;;21.39;61.14;98738.75;2038009;29;20047;-49
2022/10/15 01:27:54;;;;;;;3.05;2.15;;;;;;;21.39;61.13;98738.75;2047554;28;20096;-50
2022/10/15 01:29:07;;;;;;;5.32;2.95;;;;;;;21.40;61.02;98732.34;2063291;28;20595;-48
2022/10/15 01:30:30;;;;;;;3.67;2.25;;;;;;;21.38;61.27;98724.44;2063204;28;20050;-50
2022/10/15 01:31:40;;;;;;;3.25;2.33;;;;;;;21.39;61.04;98731.50;2063232;28;20050;-47
2022/10/15 01:32:50;;;;;;;3.15;2.47;;;;;;;21.41;61.07;98720.50;2062169;28;20078;-47
2022/10/15 01:34:00;;;;;;;4.68;2.50;;;;;;;21.42;61.17;98722.13;2062913;28;20057;-49
2022/10/15 01:35:08;;;;;;;3.53;2.40;;;;;;;21.41;61.18;98723.19;2062907;28;20057;-48
2022/10/15 01:36:17;;;;;;;3.38;2.83;;;;;;;21.42;61.31;98730.22;2063553;28;20050;-50
2022/10/15 01:37:23;;;;;;;2.97;2.67;;;;;;;21.44;61.26;98724.63;2063270;28;20131;-48
2022/10/15 01:38:35;;;;;;;4.97;2.25;;;;;;;21.42;61.07;98722.97;2063650;28;20062;-51
2022/10/15 01:39:40;;;;;;;3.63;2.67;;;;;;;21.41;61.27;98726.72;2063003;28;20058;-48
2022/10/15 01:40:49;;;;;;;3.25;2.70;;;;;;;21.43;61.29;98726.50;2062551;28;20073;-47
2022/10/15 01:41:53;;;;;;;4.07;2.72;;;;;;;21.42;61.16;98724.81;2062283;28;20050;-48
2022/10/15 01:42:58;;;;;;;4.15;2.45;;;;;;;21.43;61.02;98726.50;2059613;28;20190;-51
2022/10/15 01:44:04;;;;;;;5.78;3.58;;;;;;;21.42;60.98;98722.97;2061216;28;20766;-47
2022/10/15 01:45:08;;;;;;;3.38;2.33;;;;;;;21.44;61.11;98722.75;2061320;28;20042;-48
2022/10/15 01:46:17;;;;;;;2.75;2.22;;;;;;;21.43;61.06;98721.09;2061735;28;20058;-48
2022/10/15 01:47:23;;;;;;;3.45;2.80;;;;;;;21.43;61.04;98713.00;2059955;28;20846;-48
2022/10/15 01:48:28;;;;;;;3.40;2.58;;;;;;;21.41;61.23;98718.63;2060247;28;20092;-47
2022/10/15 01:49:33;;;;;;;3.70;2.58;;;;;;;21.42;61.06;98717.59;2059931;28;20145;-53
2022/10/15 01:50:38;;;;;;;5.22;2.63;;;;;;;21.43;61.14;98710.31;2061710;28;20050;-51
2022/10/15 01:51:42;;;;;;;3.65;2.70;;;;;;;21.42;61.02;98719.44;2060656;28;20546;-47
2022/10/15 01:52:45;;;;;;;3.25;2.55;;;;;;;21.42;61.23;98722.13;2061230;28;20123;-47
2022/10/15 01:53:47;;;;;;;4.93;2.45;;;;;;;21.42;61.38;98722.97;2059828;28;20051;-50
2022/10/15 01:54:50;;;;;;;2.85;2.10;;;;;;;21.44;61.06;98717.34;2061006;28;20497;-49
2022/10/15 01:55:54;;;;;;;3.17;2.35;;;;;;;21.43;61.05;98721.09;2063263;28;20061;-50
2022/10/15 01:56:58;;;;;;;3.03;2.55;;;;;;;21.43;61.04;98718.41;2063314;28;20050;-50
2022/10/15 01:58:01;;;;;;;5.18;2.17;;;;;;;21.42;60.98;98714.03;2062681;28;20055;-50
2022/10/15 01:59:05;;;;;;;3.40;2.85;;;;;;;21.43;61.17;98718.41;2061971;28;20058;-49
2022/10/15 02:00:07;;;;;;;4.13;2.22;;;;;;;21.42;60.94;98714.03;2061480;28;20050;-50
2022/10/15 02:01:09;;;;;;;3.85;2.35;;;;;;;21.43;61.25;98715.72;2063411;28;20046;-48
2022/10/15 02:02:12;;;;;;;3.92;2.67;;;;;;;21.42;61.27;98717.59;2063044;28;20520;-47
2022/10/15 02:03:14;;;;;;;3.08;2.72;;;;;;;21.42;61.00;98714.03;2056247;28;20191;-48
2022/10/15 02:04:19;;;;;;;3.15;2.50;;;;;;;21.44;61.20;98719.22;2057669;28;20058;-53
2022/10/15 02:05:25;;;;;;;3.67;2.60;;;;;;;21.42;61.00;98720.28;2059257;28;20060;-49
2022/10/15 02:06:32;;;;;;;2.45;2.05;;;;;;;21.42;61.13;98717.59;2062519;28;20077;-51
2022/10/15 02:07:43;;;;;;;2.50;2.30;;;;;;;21.40;61.28;98721.53;2062995;28;20053;-50
2022/10/15 02:08:56;;;;;;;4.35;2.80;;;;;;;21.41;61.29;98717.78;2063096;28;20050;-51
2022/10/15 02:10:04;;;;;;;3.15;2.13;;;;;;;21.41;61.06;98718.63;2060451;28;20046;-50
2022/10/15 02:11:09;;;;;;;3.35;2.20;;;;;;;21.41;61.26;98717.78;2063205;28;20050;-49
2022/10/15 02:12:24;;;;;;;5.07;2.55;;;;;;;21.40;61.11;98708.06;2060900;28;20050;-48
2022/10/15 02:13:33;;;;;;;2.30;2.13;;;;;;;21.39;61.16;98714.47;2063132;28;20062;-48
2022/10/15 02:14:39;;;;;;;3.92;2.47;;;;;;;21.39;61.28;98711.78;2061511;28;20050;-49
2022/10/15 02:15:45;;;;;;;5.45;2.70;;;;;;;21.39;61.33;98698.28;2063129;28;20050;-47
2022/10/15 02:16:52;;;;;;;6.28;2.47;;;;;;;21.38;61.36;98705.56;2062673;28;20085;-50
2022/10/15 02:18:02;;;;;;;2.60;2.40;;;;;;;21.39;61.25;98700.97;2063216;28;20050;-50
2022/10/15 02:19:12;;;;;;;2.58;2.38;;;;;;;21.38;61.12;98705.56;2061610;28;20066;-48
2022/10/15 02:20:18;;;;;;;3.60;2.95;;;;;;;21.36;61.24;98704.91;2061384;28;20058;-48
2022/10/15 02:21:24;;;;;;;3.00;2.72;;;;;;;21.38;61.23;98699.34;2063031;28;20067;-48
2022/10/15 02:22:31;;;;;;;5.05;2.30;;;;;;;21.39;61.11;98703.69;2063015;28;20108;-49
2022/10/15 02:23:40;;;;;;;4.70;2.83;;;;;;;21.39;61.34;98699.09;2061998;28;20114;-49
2022/10/15 02:24:46;;;;;;;3.80;2.13;;;;;;;21.40;61.03;98699.97;2062615;28;20578;-48
2022/10/15 02:25:50;;;;;;;3.13;2.40;;;;;;;21.39;61.38;98698.28;2063123;28;20054;-49
2022/10/15 02:26:54;;;;;;;3.50;2.40;;;;;;;21.39;61.02;98698.28;2062707;28;20667;-49
2022/10/15 02:27:57;;;;;;;3.58;2.00;;;;;;;21.39;61.28;98699.09;2063010;28;20050;-49
2022/10/15 02:29:00;;;;;;;2.45;2.15;;;;;;;21.39;61.00;98695.59;2062931;28;20523;-48
2022/10/15 02:30:04;;;;;;;2.47;2.00;;;;;;;21.39;61.12;98696.41;2061361;28;20060;-48
2022/10/15 02:31:09;;;;;;;3.42;2.63;;;;;;;21.40;61.04;98691.88;2061911;28;20050;-50
2022/10/15 02:32:12;;;;;;;3.42;2.60;;;;;;;21.39;61.05;98687.50;2062428;28;20058;-49
2022/10/15 02:33:16;;;;;;;3.35;2.42;;;;;;;21.41;61.05;98691.63;2061492;28;20538;-48
2022/10/15 02:34:21;;;;;;;4.85;2.63;;;;;;;21.42;61.22;98689.75;2057862;28;20137;-47
2022/10/15 02:35:23;;;;;;;3.35;2.40;;;;;;;21.40;61.34;98697.25;2061455;28;20077;-48
2022/10/15 02:36:26;;;;;;;3.78;2.53;;;;;;;21.40;61.01;98703.47;2062176;28;20054;-47
2022/10/15 02:37:28;;;;;;;2.25;1.95;;;;;;;21.41;60.99;98704.31;2062893;28;20046;-50
2022/10/15 02:38:32;;;;;;;2.13;1.90;;;;;;;21.39;61.25;98698.28;2063421;28;20050;-48
2022/10/15 02:39:34;;;;;;;4.82;2.53;;;;;;;21.39;61.08;98693.72;2061401;28;20050;-48
2022/10/15 02:40:37;;;;;;;3.13;2.20;;;;;;;21.40;61.03;98689.16;2060757;28;20123;-51
2022/10/15 02:41:38;;;;;;;3.28;3.00;;;;;;;21.40;61.17;98697.25;2063186;28;20054;-48
2022/10/15 02:42:40;;;;;;;4.07;2.47;;;;;;;21.39;60.88;98698.28;2062441;28;20046;-47
2022/10/15 02:43:41;;;;;;;3.65;2.75;;;;;;;21.40;61.26;98705.34;2062957;28;20635;-49
2022/10/15 02:44:42;;;;;;;4.15;2.80;;;;;;;21.41;61.21;98701.59;2062506;28;20169;-47
2022/10/15 02:45:43;;;;;;;2.83;2.58;;;;;;;21.39;61.24;98704.50;2062928;28;20053;-48
2022/10/15 02:46:45;;;;;;;4.18;2.97;;;;;;;21.38;61.08;98702.88;2063115;28;20054;-47
2022/10/15 02:47:46;;;;;;;2.50;2.28;;;;;;;21.38;61.14;98707.44;2062717;28;20050;-52
2022/10/15 02:48:49;;;;;;;3.33;2.00;;;;;;;21.39;61.26;98703.69;2061314;28;20137;-51
2022/10/15 02:49:50;;;;;;;4.22;2.80;;;;;;;21.39;61.32;98701.81;2061501;28;20054;-49
2022/10/15 02:50:52;;;;;;;3.97;2.65;;;;;;;21.40;61.00;98705.34;2062529;28;20538;-50
2022/10/15 02:51:52;;;;;;;4.82;2.10;;;;;;;21.38;61.28;98702.88;2059618;28;20061;-48
2022/10/15 02:52:54;;;;;;;4.07;2.28;;;;;;;21.38;61.27;98702.88;2061733;28;20136;-48
2022/10/15 02:53:55;;;;;;;5.05;2.85;;;;;;;21.39;61.17;98700.97;2062592;28;20058;-48
2022/10/15 02:54:57;;;;;;;3.05;2.45;;;;;;;21.39;61.28;98701.81;2062643;28;20078;-50
2022/10/15 02:55:57;;;;;;;3.15;1.95;;;;;;;21.39;61.33;98700.97;2063171;28;20054;-47
2022/10/15 02:56:59;;;;;;;4.68;2.40;;;;;;;21.38;61.02;98688.56;2062584;28;20054;-48
2022/10/15 02:58:00;;;;;;;6.45;3.00;;;;;;;21.38;61.30;98692.06;2062305;28;20420;-50
2022/10/15 02:59:01;;;;;;;3.22;2.63;;;;;;;21.39;61.19;98700.97;2061378;28;20144;-50
2022/10/15 03:00:03;;;;;;;3.20;2.10;;;;;;;21.37;61.31;98695.81;2059422;28;20054;-47
2022/10/15 03:01:05;;;;;;;2.88;2.58;;;;;;;21.38;61.03;98685.84;2062916;28;20136;-49
2022/10/15 03:02:06;;;;;;;2.15;1.95;;;;;;;21.37;61.30;98690.44;2061428;28;20046;-49
2022/10/15 03:03:08;;;;;;;3.95;2.22;;;;;;;21.37;61.30;98695.81;2062986;28;20049;-48
2022/10/15 03:04:10;;;;;;;5.10;2.35;;;;;;;21.38;61.30;98688.56;2061312;28;20053;-48
2022/10/15 03:05:12;;;;;;;3.83;2.55;;;;;;;21.37;61.38;98685.03;2059886;28;20489;-47
2022/10/15 03:06:13;;;;;;;2.45;2.22;;;;;;;21.39;61.28;98687.50;2062287;28;20584;-48
2022/10/15 03:07:15;;;;;;;4.07;1.92;;;;;;;21.37;61.19;98690.44;2061483;28;20078;-48
2022/10/15 03:08:16;;;;;;;2.28;2.08;;;;;;;21.37;61.15;98692.31;2062401;28;20054;-50
2022/10/15 03:09:17;;;;;;;3.53;2.38;;;;;;;21.37;61.30;98685.03;2062180;28;20056;-51
2022/10/15 03:10:18;;;;;;;2.97;2.30;;;;;;;21.37;61.13;98689.63;2062083;28;20050;-48
2022/10/15 03:11:20;;;;;;;;;;;;;;;21.27;61.45;98687.34;2063476;28;20050;-48
2022/10/15 03:12:22;;;;;;;2.80;1.83;;;;;;;21.31;61.46;98690.44;2061108;28;19930;-48
2022/10/15 03:13:24;;;;;;;2.42;1.80;;;;;;;21.34;61.43;98695.38;2059812;28;20054;-47
2022/10/15 03:14:24;;;;;;;3.15;2.15;;;;;;;21.35;61.23;98691.66;2060994;28;20050;-47
2022/10/15 03:15:26;;;;;;;;;;;;;;;21.25;61.45;98697.53;2061580;28;20141;-50
2022/10/15 03:16:27;;;;;;;3.63;2.35;;;;;;;21.28;61.57;98690.88;2060781;28;19944;-49
2022/10/15 03:17:28;;;;;;;2.53;2.10;;;;;;;21.33;61.31;98689.16;2061877;28;20050;-48
2022/10/15 03:18:29;;;;;;;2.80;2.25;;;;;;;21.34;61.24;98690.84;2060492;28;20058;-48
2022/10/15 03:19:32;;;;;;;3.47;2.10;;;;;;;21.34;61.59;98676.50;2058964;28;20056;-51
2022/10/15 03:20:33;;;;;;;4.55;2.45;;;;;;;21.34;61.26;98680.06;2058750;28;20104;-48
2022/10/15 03:21:34;;;;;;;;;;;;;;;21.24;61.63;98682.41;2059864;28;20054;-50
2022/10/15 03:22:35;;;;;;;2.35;2.00;;;;;;;21.27;61.44;98681.97;2060354;28;19961;-49
2022/10/15 03:23:36;;;;;;;;;;;;;;;21.19;61.50;98680.34;2061611;28;20073;-50
2022/10/15 03:24:37;;;;;;;3.00;2.25;;;;;;;21.24;61.83;98684.28;2062092;28;19944;-49
2022/10/15 03:25:39;;;;;;;;;;;;;;;21.17;61.89;98685.16;2062244;28;20508;-49
2022/10/15 03:26:39;;;;;;;3.53;2.17;;;;;;;21.22;61.92;98679.09;2060209;28;19957;-48
2022/10/15 03:27:42;;;;;;;;;;;;;;;21.17;62.01;98676.22;2059978;28;20489;-49
2022/10/15 03:28:42;;;;;;;3.92;1.98;;;;;;;21.23;61.49;98677.22;2059626;28;19929;-51
2022/10/15 03:29:44;;;;;;;;;;;;;;;21.17;61.79;98668.97;2059940;28;20480;-49
2022/10/15 03:30:45;;;;;;;2.97;2.28;;;;;;;21.24;61.67;98678.88;2061617;28;19979;-51
2022/10/15 03:31:47;;;;;;;3.88;2.10;;;;;;;21.28;61.56;98675.50;2059752;28;20050;-50
2022/10/15 03:32:48;;;;;;;3.75;2.42;;;;;;;21.31;61.53;98679.66;2061558;28;20057;-49
2022/10/15 03:33:49;;;;;;;;;;;;;;;21.21;61.62;98680.16;2056294;28;20054;-50
2022/10/15 03:34:51;;;;;;;3.75;2.53;;;;;;;21.26;61.71;98674.09;2058698;28;19933;-49
2022/10/15 03:35:53;;;;;;;2.05;1.88;;;;;;;21.28;61.51;98680.09;2058802;28;20073;-47
2022/10/15 03:36:55;;;;;;;6.38;2.35;;;;;;;21.30;61.59;98673.44;2060112;28;20190;-47
2022/10/15 03:37:56;;;;;;;4.35;2.78;;;;;;;21.33;61.52;98672.16;2062158;28;20053;-49
2022/10/15 03:38:57;;;;;;;;;;;;;;;21.23;61.59;98679.91;2058676;28;20444;-47
2022/10/15 03:39:58;;;;;;;3.25;1.98;;;;;;;21.25;61.59;98677.84;2061208;28;19926;-48
2022/10/15 03:40:59;;;;;;;;;;;;;;;21.18;61.87;98676.03;2059381;28;20140;-53
2022/10/15 03:42:00;;;;;;;;;;;;;;;21.13;61.85;98678.53;2061322;28;19937;-50
2022/10/15 03:43:02;;;;;;;2.42;2.20;;;;;;;21.18;61.53;98676.03;2060995;28;19936;-49
2022/10/15 03:44:04;;;;;;;3.00;2.17;;;;;;;21.25;61.54;98683.22;2054745;28;20054;-50
2022/10/15 03:45:07;;;;;;;4.10;2.08;;;;;;;21.29;61.62;98685.28;2058737;28;20527;-48
2022/10/15 03:46:08;;;;;;;2.95;2.15;;;;;;;21.31;61.29;98687.75;2057501;28;20161;-47
2022/10/15 03:47:10;;;;;;;4.82;2.10;;;;;;;21.32;61.45;98686.72;2060073;28;20540;-47
2022/10/15 03:48:11;;;;;;;3.35;1.80;;;;;;;21.32;61.21;98692.09;2060658;28;20046;-48
2022/10/15 03:49:12;;;;;;;2.28;1.90;;;;;;;21.32;61.44;98692.09;2060611;28;20480;-50
2022/10/15 03:50:15;;;;;;;2.30;1.70;;;;;;;21.33;61.08;98696.44;2057950;28;20146;-49
2022/10/15 03:51:16;;;;;;;4.70;2.28;;;;;;;21.32;61.28;98692.09;2060955;28;20093;-49
2022/10/15 03:52:17;;;;;;;2.40;1.90;;;;;;;21.31;61.38;98696.69;2062118;28;20054;-50
2022/10/15 03:53:19;;;;;;;2.10;1.88;;;;;;;21.32;61.44;98692.94;2061177;28;20089;-48
2022/10/15 03:54:20;;;;;;;5.22;2.42;;;;;;;21.33;61.39;98699.16;2061326;28;20054;-47
2022/10/15 03:55:21;;;;;;;3.92;2.20;;;;;;;21.32;61.42;98698.31;2063703;28;20058;-46
2022/10/15 03:56:22;;;;;;;3.47;2.25;;;;;;;21.32;61.35;98686.72;2059082;28;20054;-47
2022/10/15 03:57:24;;;;;;;;;;;;;;;21.22;61.60;98694.47;2062783;28;20073;-49
2022/10/15 03:58:24;;;;;;;2.92;2.20;;;;;;;21.25;61.67;98696.72;2061898;28;19979;-47
2022/10/15 03:59:26;;;;;;;;;;;;;;;21.16;61.59;98691.59;2061988;28;20100;-49
2022/10/15 04:00:27;;;;;;;;;;;;;;;21.11;61.78;98693.28;2062396;28;19921;-47
2022/10/15 04:01:29;;;;;;;2.78;2.10;;;;;;;21.18;61.96;98696.78;2062808;28;20301;-48
2022/10/15 04:02:30;;;;;;;3.33;2.13;;;;;;;21.23;61.77;98688.00;2061907;28;20066;-48
2022/10/15 04:03:32;;;;;;;3.20;2.17;;;;;;;21.26;61.55;98679.50;2063166;28;20133;-47
2022/10/15 04:04:33;;;;;;;3.22;2.70;;;;;;;21.28;61.45;98688.19;2060028;28;20127;-48
2022/10/15 04:05:36;;;;;;;2.60;2.05;;;;;;;21.30;61.36;98688.78;2059949;28;20049;-48
2022/10/15 04:06:37;;;;;;;3.58;2.90;;;;;;;21.31;61.27;98693.13;2060908;28;20634;-46
2022/10/15 04:07:39;;;;;;;2.35;1.60;;;;;;;21.30;61.63;98692.31;2060375;28;20386;-47
2022/10/15 04:08:40;;;;;;;5.13;2.25;;;;;;;21.31;61.18;98687.75;2061753;28;20069;-48
2022/10/15 04:09:41;;;;;;;;;;;;;;;21.20;61.80;98695.50;2063740;28;20052;-47
2022/10/15 04:10:42;;;;;;;2.40;1.65;;;;;;;21.23;61.72;98696.94;2063161;28;20444;-47
2022/10/15 04:11:43;;;;;;;;;;;;;;;21.15;61.63;98697.22;2062970;28;20093;-48
2022/10/15 04:12:44;;;;;;;3.08;2.08;;;;;;;21.20;61.60;98690.13;2061874;28;19934;-46
2022/10/15 04:13:48;;;;;;;;;;;;;;;21.14;61.80;98696.38;2062947;28;20046;-47
2022/10/15 04:14:48;;;;;;;2.25;2.03;;;;;;;21.19;61.97;98695.72;2062506;28;19930;-47
2022/10/15 04:15:50;;;;;;;;;;;;;;;21.13;61.69;98689.34;2059406;28;20065;-48
2022/10/15 04:16:50;;;;;;;;;;;;;;;21.08;62.14;98694.53;2061294;28;19930;-48
2022/10/15 04:17:54;;;;;;;2.07;1.83;;;;;;;21.15;61.93;98689.94;2060144;28;19944;-48
2022/10/15 04:18:57;;;;;;;3.25;2.03;;;;;;;21.23;61.64;98690.72;2060159;28;20317;-47
2022/10/15 04:19:59;;;;;;;1.92;1.70;;;;;;;21.24;61.41;98685.09;2057922;28;20137;-46
2022/10/15 04:21:01;;;;;;;2.22;1.95;;;;;;;21.26;61.42;98679.50;2059384;28;20107;-46
2022/10/15 04:22:03;;;;;;;2.38;2.00;;;;;;;21.27;61.42;98676.56;2059733;28;20050;-49
2022/10/15 04:23:04;;;;;;;2.40;2.20;;;;;;;21.27;61.34;98681.16;2061945;28;20053;-48
2022/10/15 04:24:06;;;;;;;2.38;1.98;;;;;;;21.28;61.32;98680.91;2062227;28;20480;-47
2022/10/15 04:25:08;;;;;;;2.75;2.38;;;;;;;21.28;61.30;98674.69;2060191;28;20496;-47
2022/10/15 04:26:10;;;;;;;2.35;2.13;;;;;;;21.28;61.23;98672.81;2062736;28;20050;-47
2022/10/15 04:27:11;;;;;;;2.88;1.98;;;;;;;21.28;61.23;98677.38;2060770;28;20058;-48
2022/10/15 04:28:13;;;;;;;2.88;2.22;;;;;;;21.28;61.57;98674.69;2063636;28;20648;-46
2022/10/15 04:29:14;;;;;;;2.55;2.00;;;;;;;21.30;61.20;98672.59;2063092;28;20523;-47
2022/10/15 04:30:16;;;;;;;;;;;;;;;21.19;61.76;98671.44;2064128;28;20060;-47
2022/10/15 04:31:16;;;;;;;3.80;2.42;;;;;;;21.20;61.40;98675.78;2062649;28;19928;-49
2022/10/15 04:32:18;;;;;;;2.33;2.13;;;;;;;21.24;61.63;98671.63;2063407;28;20053;-47
2022/10/15 04:33:19;;;;;;;2.22;2.00;;;;;;;21.25;61.72;98680.53;2063618;28;20463;-47
2022/10/15 04:34:20;;;;;;;3.50;1.95;;;;;;;21.26;61.65;98676.81;2060509;28;20185;-47
2022/10/15 04:35:21;;;;;;;5.40;2.30;;;;;;;21.26;61.35;98674.09;2062659;28;20050;-47
2022/10/15 04:36:24;;;;;;;4.03;2.15;;;;;;;21.28;61.38;98674.69;2062435;28;20050;-47
2022/10/15 04:37:25;;;;;;;3.72;1.80;;;;;;;21.27;61.63;98668.47;2063810;28;20054;-47
2022/10/15 04:38:27;;;;;;;3.63;1.98;;;;;;;21.28;61.23;98669.28;2063973;28;20532;-48
2022/10/15 04:39:27;;;;;;;2.33;2.10;;;;;;;21.28;61.36;98663.91;2063367;28;20112;-47
2022/10/15 04:40:29;;;;;;;4.35;2.22;;;;;;;21.29;61.23;98662.88;2061763;28;20054;-46
2022/10/15 04:41:30;;;;;;;4.63;2.42;;;;;;;21.29;61.31;98661.00;2063652;28;20153;-47
2022/10/15 04:42:32;;;;;;;1.85;1.73;;;;;;;21.29;61.45;98661.00;2064012;28;20054;-46
2022/10/15 04:43:33;;;;;;;3.05;2.22;;;;;;;21.28;61.35;98659.31;2063757;28;20057;-48
2022/10/15 04:44:34;;;;;;;4.07;2.47;;;;;;;21.28;61.56;98655.81;2060383;28;20113;-47
2022/10/15 04:45:35;;;;;;;3.15;2.22;;;;;;;21.28;61.44;98656.63;2059530;28;20053;-48
2022/10/15 04:46:37;;;;;;;3.03;1.98;;;;;;;21.27;61.13;98646.91;2063692;28;20523;-48
2022/10/15 04:47:38;;;;;;;2.60;1.88;;;;;;;21.28;61.40;98664.72;2062311;28;20125;-48
2022/10/15 04:48:40;;;;;;;;;;;;;;;21.17;61.74;98655.50;2062695;28;20815;-47
2022/10/15 04:49:40;;;;;;;;;;;;;;;21.11;61.83;98655.53;2063582;28;19925;-47
2022/10/15 04:50:42;;;;;;;3.47;2.58;;;;;;;21.16;61.48;98661.09;2063633;28;19968;-48
2022/10/15 04:51:44;;;;;;;5.72;2.42;;;;;;;21.20;61.39;98656.91;2062412;28;20558;-47
2022/10/15 04:52:47;;;;;;;2.88;2.45;;;;;;;21.23;61.62;98652.94;2063624;28;20046;-49
2022/10/15 04:53:48;;;;;;;3.20;1.90;;;;;;;21.25;61.43;98656.25;2063546;28;20053;-47
2022/10/15 04:54:49;;;;;;;3.13;1.88;;;;;;;21.26;61.33;98649.84;2063044;28;20111;-47
2022/10/15 04:55:50;;;;;;;3.80;2.28;;;;;;;21.25;61.33;98653.56;2063693;28;20103;-48
2022/10/15 04:56:52;;;;;;;3.03;2.10;;;;;;;21.26;61.50;98656.03;2063284;28;20859;-47
2022/10/15 04:57:53;;;;;;;2.20;1.70;;;;;;;21.25;61.31;98659.78;2062462;28;20050;-49
2022/10/15 04:58:55;;;;;;;3.65;2.33;;;;;;;21.27;61.47;98663.09;2063443;28;20064;-49
2022/10/15 04:59:55;;;;;;;2.40;2.20;;;;;;;21.26;61.48;98668.72;2063445;28;20108;-49
2022/10/15 05:00:59;;;;;;;;;;;;;;;21.17;61.59;98671.69;2063334;28;20116;-48